Airfield :
LOGIN :

Register | Disclaimer

   EN    FR    IT 

 










Legend :    VFR   Marginal VFR   IFR   Intensive IFR   Very Intensive IFR
Visi :
Ceiling :
>= 8 km
>= 3000ft
5 to 8 km
1000 to 3000 ft
1500m to 5 km
500 to 1000 ft
800 to 1500m
200 to 500 ft
< 800m
< 200 ft
Symbols :   Thunderstorms  Fog  Heavy snow  Heavy precipitations  Wind > 20 kt
SIGMETs :     Misc.  Thunderstorms  Icing  Turbulence  Mountain Waves  Volcanic Ashes







- Airport Elevation : 1649 ft
- IATA code : HHN


EDFH - Frankfurt-Hahn Rhineland-Palatinate

CURRENT METAR :
  • 231950Z 32011KT 9000 BKN012 07/05 Q1019

EXPIRED METARs :
  • 231920Z 32014G24KT 280V350 9000 BKN014 07/06 Q1018
  • 231850Z 31010KT 280V340 8000 BKN007 08/07 Q1016
  • 231820Z 32012KT 290V350 8000 -RA BKN006 08/08 Q1015
  • 231750Z 32013KT 6000 -RA FEW002 BKN007 09/08 Q1013
  • 231720Z 32011KT 280V340 9999 BKN005 09/09 Q1012

TAF TAF EDFH
Valid from the 23 at 18:00 until the 24 at 18:00 UTC


231700Z 2318/2418 32015G35KT 8000 BKN015
TEMPO 2318/2409 2000 RADZ BKN004
BECMG 2321/2323 29008KT
No reported NOTAMs for that airfield.
2 SIGMETs reported for the Langen FIR (EDGG) :
 
Severe turbulence
EDGG SIGMET 11 VALID 232000/232100 EDZF
EDGG LANGEN FIR SEV TURB FCST S OF N4900 SFC/FL100 MOV SE WKN=
Severe turbulence
EDGG SIGMET 10 VALID 231730/232130 EDZF
EDGG LANGEN FIR SEV TURB FCST WI N5204 E00901 - N5127 E00910 - N5124 E01046 - N5030 E01048 - N4920 E00744 - N5034 E00627 - N5120 E00713 - N5204 E00901 FL160/245 MOV E WKN=



MET'MAP, your aeronautical weather chart ! - Copyright ORBIFLY December 2007 - Disclaimer

ORBIFLY MET'MAP TEAM :

Programming & Development : Alexandra Zaïnal
Concept & Development : Baudouin d'Aumeries
Co-Development & Prog : Marc-Olivier Méhu
Technical & hardware support : Manuel Goepfert

Contact : metmap@orbifly.com




SOURCES & CREDITS :

   NOAA